KJXN/JXN METAR and TAF weather

Enter ICAO airport designator
Station Type Date Time Source
KJXN METAR 2020/07/07 23:56 UTC NOAA

KJXN 072356Z 27003KT 10SM CLR 31/20 A2993 RMK AO2 SLP129 T03060200 10328 20294 56004


Station Type Date Time Source
KJXN Decoded METAR 2020/07/07 23:56 UTC NOAA

JACKSON COUNTY-REYNOLDS, MI, United States (KJXN) 42-16N 084-28W
Jul 07, 2020 - 07:56 PM EDT / 2020.07.07 2356 UTC
Wind: from the W (270 degrees) at 3 MPH (3 KT):0
Visibility: 10 mile(s):0
Sky conditions: clear
Temperature: 87.1 F (30.6 C)
Dew Point: 68.0 F (20.0 C)
Relative Humidity: 53%
Pressure (altimeter): 29.93 in. Hg (1013 hPa)
Pressure tendency: 0.01 inches (0.4 hPa) lower than three hours ago
ob: KJXN 072356Z 27003KT 10SM CLR 31/20 A2993 RMK AO2 SLP129 T03060200 10328 20294 56004
cycle: 0

Station Type Date Time Source
KJXN TAF 2020/07/07 18:34 UTC NOAA

TAF KJXN 071732Z 0718/0818 24008KT P6SM VCTS SCT050CB SCT120 SCT250
TEMPO 0719/0723 VRB12G25KT 3SM TSRA OVC035CB
FM072300 26008KT P6SM SCT040
FM080100 00000KT P6SM SKC
FM081200 11003KT P6SM BKN045
FM081700 18006KT P6SM SCT070

Example: see airport list